createdAt,value
2022-11-15T04:27:14.449Z,96850.98
2022-11-15T04:30:06.114Z,96845.98
2022-11-15T04:32:54.540Z,96850.34
2022-11-15T04:35:44.513Z,96850.09
2022-11-15T04:38:35.543Z,96846.06
2022-11-15T04:41:23.915Z,96850.08
2022-11-15T04:44:16.052Z,96844.42
2022-11-15T04:47:08.094Z,96846.99
2022-11-15T04:49:58.239Z,96845.61
2022-11-15T04:52:55.540Z,96840.77
2022-11-15T04:55:48.720Z,96841.47
2022-11-15T04:58:38.451Z,96845.03
2022-11-15T05:01:28.507Z,96844.17
2022-11-15T05:04:22.289Z,96842.48
2022-11-15T05:07:12.199Z,96843.21
2022-11-15T05:10:01.766Z,96839.55
2022-11-15T05:12:50.842Z,96841.65
2022-11-15T05:15:39.932Z,96841.20
2022-11-15T05:18:29.299Z,96844.27
2022-11-15T05:21:19.255Z,96842.08
2022-11-15T05:24:12.529Z,96840.73
2022-11-15T05:27:01.904Z,96836.88
2022-11-15T05:29:51.798Z,96836.96
2022-11-15T05:32:41.537Z,96836.73
2022-11-15T05:35:41.600Z,96839.88
2022-11-15T05:38:31.898Z,96840.77
2022-11-15T05:41:24.069Z,96839.43
2022-11-15T05:44:15.171Z,96841.41
2022-11-15T05:47:06.506Z,96840.23
2022-11-15T05:49:56.645Z,96840.31
2022-11-15T05:52:47.810Z,96839.05
2022-11-15T05:55:40.685Z,96841.41
2022-11-15T05:58:32.280Z,96847.14
2022-11-15T06:01:22.599Z,96844.61
2022-11-15T06:04:12.079Z,96841.13
2022-11-15T06:07:02.647Z,96836.09
2022-11-15T06:09:52.549Z,96830.17
2022-11-15T06:12:42.095Z,96837.14
2022-11-15T06:15:34.956Z,96835.33
2022-11-15T06:18:24.946Z,96836.36
2022-11-15T06:21:14.255Z,96836.15
2022-11-15T06:24:03.644Z,96836.45
2022-11-15T06:26:53.835Z,96833.95
2022-11-15T06:29:42.878Z,96833.46
2022-11-15T06:32:32.748Z,96832.98
2022-11-15T06:35:22.279Z,96830.93
2022-11-15T06:38:12.464Z,96830.33
2022-11-15T06:41:08.285Z,96823.33
2022-11-15T06:44:01.992Z,96821.84
2022-11-15T06:46:53.401Z,96817.58
2022-11-15T06:49:42.188Z,96818.30
2022-11-15T06:52:33.847Z,96814.38
2022-11-15T06:55:22.603Z,96812.96
2022-11-15T06:58:12.019Z,96812.21
2022-11-15T07:01:06.909Z,96806.24
2022-11-15T07:03:57.364Z,96803.66
2022-11-15T07:06:49.444Z,96803.27
2022-11-15T07:09:39.080Z,96805.43
2022-11-15T07:12:28.791Z,96798.55
2022-11-15T07:15:20.079Z,96799.36
2022-11-15T07:18:10.159Z,96801.02
2022-11-15T07:21:03.547Z,96801.44
2022-11-15T07:23:53.354Z,96803.35
2022-11-15T07:26:42.985Z,96803.21
2022-11-15T07:29:33.218Z,96799.97
2022-11-15T07:32:22.381Z,96798.12
2022-11-15T07:35:11.576Z,96801.45
2022-11-15T07:38:03.399Z,96800.19
2022-11-15T07:40:59.467Z,96799.18
2022-11-15T07:43:47.786Z,96796.48
2022-11-15T07:46:37.791Z,96798.31
2022-11-15T07:49:26.929Z,96792.61
2022-11-15T07:52:16.758Z,96783.50
2022-11-15T07:55:06.750Z,96778.14
2022-11-15T07:58:02.134Z,96782.05
2022-11-15T08:00:51.639Z,96778.41
2022-11-15T08:03:41.183Z,96771.32
2022-11-15T08:06:30.556Z,96765.57
2022-11-15T08:09:20.092Z,96764.60
2022-11-15T08:12:10.002Z,96755.44
2022-11-15T08:15:00.172Z,96751.91
2022-11-15T08:17:54.973Z,96745.02
2022-11-15T08:20:45.328Z,96740.38
2022-11-15T08:23:35.185Z,96738.09
2022-11-15T08:26:26.303Z,96736.25
2022-11-15T08:29:16.075Z,96738.34
2022-11-15T08:32:04.636Z,96737.50
2022-11-15T08:34:54.818Z,96734.29
2022-11-15T08:37:44.526Z,96732.48
2022-11-15T08:40:34.020Z,96731.52
2022-11-15T08:43:23.703Z,96731.79
2022-11-15T08:46:15.097Z,96733.71
2022-11-15T08:49:04.815Z,96723.86
2022-11-15T08:51:54.815Z,96721.66
2022-11-15T08:54:44.815Z,96719.45
2022-11-15T08:57:35.184Z,96717.46
2022-11-15T09:00:23.633Z,96718.69
2022-11-15T09:03:12.678Z,96715.35
2022-11-15T09:06:03.198Z,96710.65
2022-11-15T09:08:52.746Z,96704.05
2022-11-15T09:11:42.881Z,96701.81
2022-11-15T09:14:31.284Z,96705.98
2022-11-15T09:17:24.738Z,96697.00
2022-11-15T09:20:15.590Z,96688.77
2022-11-15T09:23:05.518Z,96684.05
2022-11-15T09:25:54.701Z,96682.92
2022-11-15T09:28:44.369Z,96678.18
2022-11-15T09:31:34.312Z,96678.38
2022-11-15T09:34:24.012Z,96675.60
2022-11-15T09:37:13.693Z,96669.30
2022-11-15T09:40:03.004Z,96659.25
2022-11-15T09:43:10.172Z,96651.84
2022-11-15T09:46:05.569Z,96650.34
2022-11-15T09:48:58.519Z,96650.00
2022-11-15T09:51:56.433Z,96646.02
2022-11-15T09:54:56.600Z,96641.94
2022-11-15T09:57:46.568Z,96637.06
2022-11-15T10:00:50.463Z,96632.75
2022-11-15T10:03:43.046Z,96637.09
2022-11-15T10:06:26.581Z,96627.34
2022-11-15T10:09:06.149Z,96624.85
2022-11-15T10:11:39.594Z,96620.39
2022-11-15T10:14:26.211Z,96615.40
2022-11-15T10:17:27.040Z,96610.84
2022-11-15T10:20:15.123Z,96607.30
2022-11-15T10:22:48.988Z,96605.73
2022-11-15T10:25:29.025Z,96599.73
2022-11-15T10:28:11.168Z,96595.71
2022-11-15T10:30:51.145Z,96587.45
2022-11-15T10:33:36.148Z,96586.23
2022-11-15T10:36:15.180Z,96580.73
2022-11-15T10:38:51.526Z,96578.77
2022-11-15T10:41:33.329Z,96572.58
2022-11-15T10:44:13.622Z,96567.23
2022-11-15T10:46:48.185Z,96566.84
2022-11-15T10:49:23.918Z,96559.33
2022-11-15T10:51:59.939Z,96555.04
2022-11-15T10:54:42.892Z,96552.42
2022-11-15T10:57:21.692Z,96548.88
2022-11-15T11:00:07.056Z,96542.80
2022-11-15T11:02:47.462Z,96534.80
2022-11-15T11:05:42.208Z,96529.89
2022-11-15T11:08:15.824Z,96521.52
2022-11-15T11:11:01.939Z,96513.09
2022-11-15T11:13:41.263Z,96510.91
2022-11-15T11:16:21.166Z,96506.41
2022-11-15T11:19:31.162Z,96503.69
2022-11-15T11:22:27.704Z,96500.30
2022-11-15T11:25:30.933Z,96494.95
2022-11-15T11:28:04.300Z,96490.23
2022-11-15T11:31:11.567Z,96485.46
2022-11-15T11:33:46.444Z,96479.80
2022-11-15T11:36:34.874Z,96474.66
2022-11-15T11:39:20.459Z,96467.37
2022-11-15T11:42:06.195Z,96467.25
2022-11-15T11:44:52.999Z,96465.23
2022-11-15T11:47:41.292Z,96462.73
2022-11-15T11:50:21.185Z,96459.36
2022-11-15T11:53:19.617Z,96458.75
2022-11-15T11:55:58.943Z,96454.54
2022-11-15T11:58:43.333Z,96452.27
2022-11-15T12:01:26.946Z,96450.77
2022-11-15T12:04:06.486Z,96444.44
2022-11-15T12:07:05.747Z,96438.20
2022-11-15T12:10:17.542Z,96438.55
2022-11-15T12:13:18.661Z,96438.62
2022-11-15T12:16:11.299Z,96442.70
2022-11-15T12:18:51.728Z,96440.17
2022-11-15T12:21:43.907Z,96437.55
2022-11-15T12:24:28.079Z,96432.76
2022-11-15T12:27:25.096Z,96428.42
2022-11-15T12:30:02.844Z,96426.94
2022-11-15T12:32:39.058Z,96424.62
2022-11-15T12:35:39.148Z,96423.85
2022-11-15T12:38:14.332Z,96422.24
2022-11-15T12:41:15.466Z,96420.36
2022-11-15T12:43:48.826Z,96415.37
2022-11-15T12:46:25.891Z,96414.63
2022-11-15T12:48:59.264Z,96411.58
2022-11-15T12:51:45.199Z,96406.12
2022-11-15T12:54:23.210Z,96412.02
2022-11-15T12:57:04.787Z,96403.52
2022-11-15T13:00:12.266Z,96406.60
2022-11-15T13:02:46.744Z,96401.86
2022-11-15T13:05:17.704Z,96396.11
2022-11-15T13:07:51.113Z,96399.18
2022-11-15T13:10:32.589Z,96400.63
2022-11-15T13:13:05.045Z,96393.42
2022-11-15T13:15:55.806Z,96388.29
2022-11-15T13:18:39.573Z,96384.64
2022-11-15T13:21:45.299Z,96383.58
2022-11-15T13:24:18.343Z,96379.60
2022-11-15T13:26:47.994Z,96383.06
2022-11-15T13:29:21.054Z,96387.72
2022-11-15T13:31:51.915Z,96395.85
2022-11-15T13:37:21.359Z,96379.55
2022-11-15T13:39:52.627Z,96374.43
2022-11-15T13:42:23.233Z,96376.19
2022-11-15T13:45:03.112Z,96377.18
2022-11-15T13:47:33.989Z,96376.73
2022-11-15T13:50:09.676Z,96377.86
2022-11-15T13:52:45.154Z,96381.42
2022-11-15T13:55:23.272Z,96390.23
2022-11-15T13:57:56.092Z,96390.81
2022-11-15T14:00:29.369Z,96385.63
2022-11-15T14:03:07.434Z,96380.41
2022-11-15T14:05:37.003Z,96375.20
2022-11-15T14:08:25.278Z,96374.10
2022-11-15T14:11:21.382Z,96376.76
2022-11-15T14:14:09.797Z,96371.45
2022-11-15T14:16:41.999Z,96365.67
2022-11-15T14:19:33.778Z,96361.38
2022-11-15T14:22:14.864Z,96355.80
2022-11-15T14:24:47.739Z,96356.63
2022-11-15T14:27:19.873Z,96357.62
2022-11-15T14:29:50.868Z,96353.95
2022-11-15T14:32:32.144Z,96351.05
2022-11-15T14:35:04.210Z,96350.46
2022-11-15T14:37:38.274Z,96351.02
2022-11-15T14:40:11.145Z,96352.68
2022-11-15T14:42:41.134Z,96352.91
2022-11-15T14:45:23.914Z,96353.01
2022-11-15T14:47:53.013Z,96355.96
2022-11-15T14:50:24.443Z,96355.34
2022-11-15T14:52:54.724Z,96349.35
2022-11-15T14:55:33.380Z,96352.45
2022-11-15T14:58:05.199Z,96345.77
2022-11-15T15:00:38.672Z,96346.63
2022-11-15T15:03:09.713Z,96341.92
2022-11-15T15:05:44.488Z,96343.27
2022-11-15T15:08:14.414Z,96342.00
2022-11-15T15:10:46.927Z,96342.70
2022-11-15T15:13:25.078Z,96337.16
2022-11-15T15:15:55.247Z,96329.71
2022-11-15T15:18:24.865Z,96330.70
2022-11-15T15:21:01.341Z,96333.27
2022-11-15T15:23:34.530Z,96339.84
2022-11-15T15:26:05.994Z,96332.36
2022-11-15T15:28:37.382Z,96335.41
2022-11-15T15:31:07.303Z,96337.96
2022-11-15T15:33:37.272Z,96335.75
2022-11-15T15:36:07.080Z,96332.84
2022-11-15T15:38:36.508Z,96331.06
2022-11-15T15:41:05.993Z,96329.11
2022-11-15T15:43:36.921Z,96330.91
2022-11-15T15:46:11.853Z,96331.87
2022-11-15T15:48:42.222Z,96327.36
2022-11-15T15:51:18.726Z,96322.67
2022-11-15T15:53:49.989Z,96322.94
2022-11-15T15:56:19.628Z,96325.51
2022-11-15T15:58:53.312Z,96319.47
2022-11-15T16:01:23.380Z,96316.23
2022-11-15T16:03:52.160Z,96317.67
2022-11-15T16:06:40.642Z,96318.54
2022-11-15T16:09:17.035Z,96319.23
2022-11-15T16:11:48.648Z,96316.59
2022-11-15T16:14:18.210Z,96322.48
2022-11-15T16:16:48.221Z,96315.17
2022-11-15T16:19:17.875Z,96315.05
2022-11-15T16:21:47.858Z,96314.08
2022-11-15T16:24:17.435Z,96310.34
2022-11-15T16:26:48.618Z,96304.27
2022-11-15T16:29:18.980Z,96302.09
2022-11-15T16:31:49.216Z,96305.38
2022-11-15T16:34:19.209Z,96306.59
2022-11-15T16:36:48.109Z,96304.72
2022-11-15T16:39:19.901Z,96303.52
2022-11-15T16:41:50.041Z,96304.27
2022-11-15T16:44:20.102Z,96297.36
2022-11-15T16:46:52.422Z,96299.73
2022-11-15T16:49:22.359Z,96296.96
2022-11-15T16:51:52.009Z,96295.09
2022-11-15T16:54:20.959Z,96288.85
2022-11-15T16:56:51.070Z,96288.25
2022-11-15T16:59:21.647Z,96283.29
2022-11-15T17:01:51.581Z,96278.27
2022-11-15T17:04:23.154Z,96277.38
2022-11-15T17:06:53.532Z,96277.77
2022-11-15T17:09:25.132Z,96268.98
2022-11-15T17:11:54.979Z,96265.96
2022-11-15T17:14:23.895Z,96260.29
2022-11-15T17:16:57.811Z,96261.20
2022-11-15T17:19:28.400Z,96256.81
2022-11-15T17:21:57.349Z,96242.06
2022-11-15T17:24:27.604Z,96240.59
2022-11-15T17:26:57.594Z,96237.16
2022-11-15T17:29:27.798Z,96237.83
2022-11-15T17:31:57.877Z,96238.17
2022-11-15T17:34:27.496Z,96239.11
2022-11-15T17:36:57.273Z,96242.16
2022-11-15T17:39:26.299Z,96242.30
2022-11-15T17:41:55.405Z,96241.61
2022-11-15T17:44:29.595Z,96247.30
2022-11-15T17:46:59.818Z,96247.32
2022-11-15T17:49:29.238Z,96247.48
2022-11-15T17:51:59.617Z,96247.54
2022-11-15T17:54:30.053Z,96249.86
2022-11-15T17:57:00.571Z,96250.35
2022-11-15T17:59:30.355Z,96239.10
2022-11-15T18:02:01.024Z,96232.31
2022-11-15T18:04:31.277Z,96225.25
2022-11-15T18:07:01.402Z,96224.16
2022-11-15T18:09:31.543Z,96223.27
2022-11-15T18:12:00.472Z,96222.27
2022-11-15T18:14:30.901Z,96215.05
2022-11-15T18:16:59.874Z,96206.88
2022-11-15T18:19:31.989Z,96204.02
2022-11-15T18:22:04.808Z,96194.27
2022-11-15T18:24:38.788Z,96199.65
2022-11-15T18:27:09.132Z,96201.23
2022-11-15T18:29:39.479Z,96201.77
2022-11-15T18:32:12.861Z,96204.77
2022-11-15T18:34:43.823Z,96194.39
2022-11-15T18:37:12.725Z,96182.31
2022-11-15T18:39:43.202Z,96178.88
2022-11-15T18:42:12.039Z,96194.38
2022-11-15T18:44:42.521Z,96190.08
2022-11-15T18:47:12.150Z,96190.89
2022-11-15T18:49:41.521Z,96190.66
2022-11-15T18:52:11.675Z,96189.84
2022-11-15T18:54:41.700Z,96188.23
2022-11-15T18:57:11.366Z,96192.88
2022-11-15T18:59:42.778Z,96187.55
2022-11-15T19:02:13.497Z,96186.95
2022-11-15T19:04:43.310Z,96184.48
2022-11-15T19:07:13.441Z,96180.64
2022-11-15T19:09:43.475Z,96171.08
2022-11-15T19:12:13.499Z,96167.05
2022-11-15T19:14:43.823Z,96166.49
2022-11-15T19:17:14.227Z,96172.92
2022-11-15T19:19:44.245Z,96174.67
2022-11-15T19:22:14.231Z,96167.69
2022-11-15T19:24:43.934Z,96165.51
2022-11-15T19:27:13.513Z,96169.58
2022-11-15T19:29:42.985Z,96170.90
2022-11-15T19:32:13.064Z,96168.39
2022-11-15T19:34:43.266Z,96162.91
2022-11-15T19:37:12.981Z,96157.06
2022-11-15T19:39:42.862Z,96160.15
2022-11-15T19:42:13.016Z,96161.77
2022-11-15T19:44:43.137Z,96162.25
2022-11-15T19:47:12.889Z,96158.21
2022-11-15T19:49:43.829Z,96159.78
2022-11-15T19:52:13.874Z,96153.33
2022-11-15T19:54:43.858Z,96152.25
2022-11-15T19:57:14.168Z,96145.90
2022-11-15T19:59:44.535Z,96138.88
2022-11-15T20:02:14.508Z,96143.90
2022-11-15T20:04:43.675Z,96142.34
2022-11-15T20:07:13.347Z,96140.90
2022-11-15T20:09:44.089Z,96138.33
2022-11-15T20:12:14.133Z,96140.89
2022-11-15T20:14:46.448Z,96135.90
2022-11-15T20:17:16.426Z,96131.86
2022-11-15T20:19:46.506Z,96135.42
2022-11-15T20:22:16.550Z,96140.66
2022-11-15T20:24:46.604Z,96136.98
2022-11-15T20:27:16.756Z,96132.45
2022-11-15T20:29:46.707Z,96134.33
2022-11-15T20:32:16.920Z,96122.23
2022-11-15T20:34:51.451Z,96122.50
2022-11-15T20:37:24.710Z,96123.02
2022-11-15T20:39:55.117Z,96119.27
2022-11-15T20:42:26.457Z,96119.02
2022-11-15T20:44:56.695Z,96119.05
2022-11-15T20:47:30.102Z,96119.60
2022-11-15T20:50:20.873Z,96118.04
2022-11-15T20:52:52.097Z,96114.45
2022-11-15T20:55:22.123Z,96110.58
2022-11-15T20:57:52.491Z,96106.92
2022-11-15T21:00:27.603Z,96107.55
2022-11-15T21:02:57.555Z,96101.44
2022-11-15T21:05:29.069Z,96100.46
2022-11-15T21:07:59.432Z,96100.79
2022-11-15T21:10:49.488Z,96095.13
2022-11-15T21:13:19.945Z,96094.88
2022-11-15T21:15:50.035Z,96087.97
2022-11-15T21:18:19.995Z,96082.48
2022-11-15T21:20:50.929Z,96073.95
2022-11-15T21:23:21.447Z,96073.76
2022-11-15T21:25:53.484Z,96074.08
2022-11-15T21:28:24.453Z,96069.77
2022-11-15T21:30:56.833Z,96073.60
2022-11-15T21:33:30.729Z,96068.58
2022-11-15T21:36:01.813Z,96063.15
2022-11-15T21:38:32.673Z,96059.26
2022-11-15T21:41:06.752Z,96057.02
2022-11-15T21:43:36.711Z,96054.11
2022-11-15T21:46:07.592Z,96051.00
2022-11-15T21:48:37.954Z,96046.33
2022-11-15T21:51:10.887Z,96051.72
2022-11-15T21:53:41.731Z,96052.23
2022-11-15T21:56:14.309Z,96044.86
2022-11-15T21:58:43.741Z,96047.80
2022-11-15T22:01:33.120Z,96045.94
2022-11-15T22:04:03.585Z,96050.02
2022-11-15T22:06:34.645Z,96044.08
2022-11-15T22:09:05.707Z,96037.19
2022-11-15T22:11:36.198Z,96036.88
2022-11-15T22:14:06.435Z,96035.21
2022-11-15T22:16:38.069Z,96030.11
2022-11-15T22:19:08.488Z,96024.45
2022-11-15T22:21:40.294Z,96019.66
2022-11-15T22:24:10.407Z,96017.93
2022-11-15T22:26:40.315Z,96014.25
2022-11-15T22:29:10.415Z,96022.55
2022-11-15T22:31:42.600Z,96020.90
2022-11-15T22:34:12.464Z,96023.42
2022-11-15T22:37:13.143Z,96025.77
2022-11-15T22:39:36.238Z,96018.89
2022-11-15T22:42:06.615Z,96018.84
2022-11-15T22:44:37.054Z,96019.96
2022-11-15T22:47:05.943Z,96023.92
2022-11-15T22:49:37.119Z,96013.09
2022-11-15T22:52:07.477Z,96002.81
2022-11-15T22:54:37.843Z,96004.91
2022-11-15T22:57:08.359Z,96012.48
2022-11-15T22:59:38.781Z,96002.67
2022-11-15T23:02:09.363Z,95993.65
2022-11-15T23:04:39.833Z,95993.71
2022-11-15T23:07:11.014Z,95993.00
2022-11-15T23:09:41.717Z,95986.79
2022-11-15T23:12:44.608Z,95979.98
2022-11-15T23:15:14.526Z,95976.38
2022-11-15T23:17:44.460Z,95960.81
2022-11-15T23:20:36.880Z,95957.36
2022-11-15T23:23:05.149Z,95959.30
2022-11-15T23:25:34.552Z,95952.23
2022-11-15T23:28:05.819Z,95954.13
2022-11-15T23:30:56.905Z,95951.81
2022-11-15T23:33:57.570Z,95950.30
2022-11-15T23:36:29.865Z,95944.79
2022-11-15T23:39:02.405Z,95939.20
2022-11-15T23:41:31.406Z,95929.45
2022-11-15T23:44:01.641Z,95935.41
2022-11-15T23:46:32.668Z,95937.44
2022-11-15T23:49:03.399Z,95939.46
2022-11-15T23:51:34.232Z,95941.10
2022-11-15T23:54:04.738Z,95937.13
2022-11-15T23:56:35.493Z,95935.73
2022-11-15T23:59:06.576Z,95934.09
